createdAt,value
2019-03-25T00:01:37.042Z,67.31
2019-03-25T00:04:05.773Z,67.82
2019-03-25T00:06:34.488Z,67.46
2019-03-25T00:09:05.672Z,67.49
2019-03-25T00:11:34.496Z,68.25
2019-03-25T00:14:03.226Z,68.75
2019-03-25T00:16:33.258Z,69.32
2019-03-25T00:19:01.967Z,68.97
2019-03-25T00:21:30.693Z,68.49
2019-03-25T00:23:59.459Z,68.80
2019-03-25T00:26:28.247Z,69.05
2019-03-25T00:28:56.975Z,68.69
2019-03-25T00:31:26.128Z,69.13
2019-03-25T00:33:54.850Z,68.33
2019-03-25T00:36:23.572Z,69.39
2019-03-25T00:38:52.497Z,70.02
2019-03-25T00:41:21.231Z,69.60
2019-03-25T00:43:49.955Z,66.41
2019-03-25T00:46:18.775Z,68.94
2019-03-25T00:48:47.495Z,70.52
2019-03-25T00:51:16.220Z,72.49
2019-03-25T00:53:45.099Z,73.98
2019-03-25T00:56:13.815Z,75.57
2019-03-25T00:58:42.582Z,76.78
2019-03-25T01:01:11.692Z,78.00
2019-03-25T01:03:40.411Z,77.52
2019-03-25T01:06:09.141Z,76.24
2019-03-25T01:08:37.929Z,76.28
2019-03-25T01:11:06.659Z,76.08
2019-03-25T01:13:35.381Z,76.20
2019-03-25T01:16:04.164Z,76.45
2019-03-25T01:18:32.875Z,76.89
2019-03-25T01:21:01.594Z,77.24
2019-03-25T01:23:30.366Z,77.13
2019-03-25T01:25:59.084Z,76.36
2019-03-25T01:28:27.948Z,76.19
2019-03-25T01:30:56.727Z,75.99
2019-03-25T01:33:25.457Z,75.92
2019-03-25T01:35:54.180Z,76.02
2019-03-25T01:38:22.973Z,75.67
2019-03-25T01:40:51.694Z,75.31
2019-03-25T01:43:20.406Z,75.54
2019-03-25T01:45:49.174Z,75.43
2019-03-25T01:48:17.898Z,75.88
2019-03-25T01:50:46.613Z,75.23
2019-03-25T01:53:15.483Z,74.50
2019-03-25T01:55:44.200Z,74.29
2019-03-25T01:58:12.916Z,74.08
2019-03-25T02:00:41.821Z,73.70
2019-03-25T02:03:10.546Z,73.46
2019-03-25T02:05:39.262Z,73.53
2019-03-25T02:08:08.224Z,73.56
2019-03-25T02:10:36.944Z,73.68
2019-03-25T02:13:05.662Z,73.54
2019-03-25T02:15:34.821Z,73.17
2019-03-25T02:18:03.528Z,73.30
2019-03-25T02:20:32.265Z,73.10
2019-03-25T02:23:01.281Z,73.17
2019-03-25T02:25:30.213Z,72.64
2019-03-25T02:27:58.927Z,72.23
2019-03-25T02:30:27.728Z,71.92
2019-03-25T02:32:56.443Z,71.63
2019-03-25T02:35:25.170Z,71.56
2019-03-25T02:37:53.914Z,72.20
2019-03-25T02:40:22.629Z,72.18
2019-03-25T02:42:51.367Z,72.14
2019-03-25T02:45:20.134Z,71.73
2019-03-25T02:47:48.843Z,71.93
2019-03-25T02:50:17.567Z,72.38
2019-03-25T02:52:46.338Z,72.69
2019-03-25T02:55:15.055Z,73.40
2019-03-25T02:57:43.779Z,73.73
2019-03-25T03:00:13.354Z,73.82
2019-03-25T03:06:33.116Z,73.92
2019-03-25T03:09:02.923Z,73.79
2019-03-25T03:11:31.709Z,73.41
2019-03-25T03:14:00.430Z,73.57
2019-03-25T03:16:29.152Z,73.01
2019-03-25T03:18:57.933Z,72.91
2019-03-25T03:21:26.644Z,72.99
2019-03-25T03:23:55.382Z,73.16
2019-03-25T03:26:24.347Z,73.57
2019-03-25T03:28:53.070Z,73.65
2019-03-25T03:31:21.817Z,73.71
2019-03-25T03:33:50.615Z,74.21
2019-03-25T03:36:19.331Z,74.92
2019-03-25T03:38:48.060Z,75.23
2019-03-25T03:41:17.202Z,73.79
2019-03-25T03:43:45.917Z,73.88
2019-03-25T03:46:14.654Z,75.12
2019-03-25T03:48:43.521Z,76.18
2019-03-25T03:51:12.431Z,77.14
2019-03-25T03:53:41.460Z,76.00
2019-03-25T03:56:13.759Z,75.79
2019-03-25T03:58:42.782Z,77.55
2019-03-25T04:01:11.514Z,78.89
2019-03-25T04:03:40.480Z,80.04
2019-03-25T04:06:09.207Z,81.07
2019-03-25T04:08:37.927Z,81.93
2019-03-25T04:11:07.068Z,82.62
2019-03-25T04:13:35.788Z,82.82
2019-03-25T04:16:04.512Z,82.72
2019-03-25T04:18:33.364Z,82.38
2019-03-25T04:21:02.078Z,82.54
2019-03-25T04:23:30.819Z,82.04
2019-03-25T04:25:59.983Z,82.22
2019-03-25T04:28:28.717Z,82.17
2019-03-25T04:30:57.441Z,81.74
2019-03-25T04:33:26.225Z,82.69
2019-03-25T04:35:54.986Z,83.01
2019-03-25T04:38:23.713Z,83.46
2019-03-25T04:40:52.717Z,83.83
2019-03-25T04:43:21.431Z,84.04
2019-03-25T04:45:50.158Z,83.41
2019-03-25T04:48:18.909Z,83.26
2019-03-25T04:50:47.635Z,83.10
2019-03-25T04:53:16.353Z,82.25
2019-03-25T04:55:45.140Z,81.29
2019-03-25T04:58:13.862Z,80.50
2019-03-25T05:00:42.582Z,80.76
2019-03-25T05:03:11.354Z,80.23
2019-03-25T05:05:40.063Z,79.91
2019-03-25T05:08:08.793Z,79.13
2019-03-25T05:10:37.640Z,77.89
2019-03-25T05:13:06.471Z,77.11
2019-03-25T05:15:35.208Z,75.53
2019-03-25T05:18:04.087Z,75.58
2019-03-25T05:20:32.818Z,74.13
2019-03-25T05:23:01.533Z,72.96
2019-03-25T05:25:30.648Z,71.72
2019-03-25T05:27:59.368Z,70.18
2019-03-25T05:30:28.080Z,69.66
2019-03-25T05:32:56.966Z,69.42
2019-03-25T05:35:25.662Z,69.07
2019-03-25T05:37:54.393Z,69.74
2019-03-25T05:40:23.328Z,70.66
2019-03-25T05:42:52.063Z,68.42
2019-03-25T05:45:20.789Z,67.88
2019-03-25T05:47:49.633Z,65.57
2019-03-25T05:50:18.353Z,64.26
2019-03-25T05:52:47.080Z,62.81
2019-03-25T05:55:15.957Z,61.28
2019-03-25T05:57:44.678Z,62.03
2019-03-25T06:00:13.405Z,61.64
2019-03-25T06:02:42.429Z,56.51
2019-03-25T06:05:11.344Z,59.03
2019-03-25T06:07:40.055Z,56.94
2019-03-25T06:10:09.091Z,55.52
2019-03-25T06:12:37.815Z,56.32
2019-03-25T06:15:07.644Z,55.83
2019-03-25T06:17:36.896Z,55.18
2019-03-25T06:20:06.703Z,56.75
2019-03-25T06:22:35.423Z,58.42
2019-03-25T06:25:05.675Z,59.44
2019-03-25T06:27:34.389Z,58.88
2019-03-25T06:30:04.112Z,57.35
2019-03-25T06:32:33.106Z,55.27
2019-03-25T06:35:01.837Z,55.27
2019-03-25T06:37:30.558Z,52.57
2019-03-25T06:39:59.812Z,51.44
2019-03-25T06:42:28.525Z,51.65
2019-03-25T06:44:57.264Z,50.83
2019-03-25T06:47:26.458Z,50.78
2019-03-25T06:49:55.176Z,50.47
2019-03-25T06:52:27.049Z,50.35
2019-03-25T06:54:55.817Z,51.26
2019-03-25T06:57:25.708Z,50.45
2019-03-25T06:59:54.747Z,49.01
2019-03-25T07:02:23.883Z,50.03
2019-03-25T07:04:52.607Z,50.73
2019-03-25T07:07:21.324Z,48.52
2019-03-25T07:09:50.217Z,47.89
2019-03-25T07:12:19.137Z,47.42
2019-03-25T07:14:47.866Z,48.18
2019-03-25T07:17:16.624Z,48.91
2019-03-25T07:19:45.344Z,49.73
2019-03-25T07:22:14.063Z,48.74
2019-03-25T07:24:42.916Z,48.35
2019-03-25T07:27:11.641Z,46.94
2019-03-25T07:29:40.363Z,45.19
2019-03-25T07:32:09.203Z,45.01
2019-03-25T07:34:37.916Z,44.23
2019-03-25T07:37:06.630Z,43.74
2019-03-25T07:39:36.509Z,44.13
2019-03-25T07:42:05.301Z,44.38
2019-03-25T07:44:34.038Z,45.65
2019-03-25T07:47:02.814Z,44.38
2019-03-25T07:49:31.537Z,43.00
2019-03-25T07:52:00.269Z,39.83
2019-03-25T07:54:29.147Z,41.98
2019-03-25T07:56:57.869Z,41.04
2019-03-25T07:59:26.603Z,42.51
2019-03-25T08:01:55.702Z,41.28
2019-03-25T08:04:24.414Z,40.67
2019-03-25T08:06:53.167Z,40.05
2019-03-25T08:09:22.001Z,44.27
2019-03-25T08:11:50.742Z,40.56
2019-03-25T08:14:19.458Z,42.47
2019-03-25T08:16:48.419Z,42.53
2019-03-25T08:19:17.156Z,39.86
2019-03-25T08:21:45.967Z,40.61
2019-03-25T08:24:14.812Z,38.32
2019-03-25T08:26:43.535Z,41.74
2019-03-25T08:29:12.261Z,37.34
2019-03-25T08:31:41.038Z,38.13
2019-03-25T08:34:09.753Z,37.42
2019-03-25T08:36:38.547Z,39.98
2019-03-25T08:39:07.916Z,39.94
2019-03-25T08:41:36.626Z,40.80
2019-03-25T08:44:05.443Z,39.74
2019-03-25T08:46:34.259Z,39.18
2019-03-25T08:49:02.976Z,41.18
2019-03-25T08:51:31.698Z,37.58
2019-03-25T08:54:00.519Z,35.48
2019-03-25T08:56:29.247Z,36.06
2019-03-25T08:58:58.011Z,36.53
2019-03-25T09:01:26.903Z,38.25
2019-03-25T09:03:55.619Z,38.02
2019-03-25T09:06:24.452Z,37.39
2019-03-25T09:08:53.226Z,39.60
2019-03-25T09:11:21.971Z,37.69
2019-03-25T09:13:50.688Z,37.33
2019-03-25T09:16:19.493Z,35.25
2019-03-25T09:18:48.217Z,34.43
2019-03-25T09:21:16.941Z,36.65
2019-03-25T09:23:45.737Z,37.03
2019-03-25T09:26:14.568Z,35.78
2019-03-25T09:28:43.317Z,37.93
2019-03-25T09:31:14.120Z,39.71
2019-03-25T09:33:42.835Z,36.80
2019-03-25T09:36:11.660Z,39.99
2019-03-25T09:38:41.759Z,37.11
2019-03-25T09:41:10.490Z,35.52
2019-03-25T09:43:39.207Z,32.97
2019-03-25T09:46:08.577Z,33.44
2019-03-25T09:48:37.306Z,34.01
2019-03-25T09:51:06.534Z,32.42
2019-03-25T09:53:35.384Z,33.95
2019-03-25T09:56:04.112Z,34.05
2019-03-25T09:58:36.506Z,32.39
2019-03-25T10:01:03.348Z,34.24
2019-03-25T10:03:32.084Z,31.46
2019-03-25T10:06:00.817Z,34.09
2019-03-25T10:08:29.665Z,33.81
2019-03-25T10:10:58.390Z,30.47
2019-03-25T10:13:27.120Z,31.69
2019-03-25T10:15:55.876Z,31.11
2019-03-25T10:18:24.601Z,31.03
2019-03-25T10:20:53.341Z,30.90
2019-03-25T10:23:22.083Z,29.93
2019-03-25T10:25:50.815Z,30.25
2019-03-25T10:28:19.531Z,30.34
2019-03-25T10:30:48.404Z,29.76
2019-03-25T10:33:17.123Z,31.55
2019-03-25T10:35:45.844Z,29.22
2019-03-25T10:38:19.417Z,29.10
2019-03-25T10:40:45.096Z,32.64
2019-03-25T10:43:13.892Z,30.24
2019-03-25T10:45:42.762Z,28.88
2019-03-25T10:48:12.070Z,27.85
2019-03-25T10:50:40.803Z,32.23
2019-03-25T10:53:09.980Z,28.38
2019-03-25T10:55:38.777Z,26.61
2019-03-25T10:58:07.498Z,27.11
2019-03-25T11:00:36.940Z,28.81
2019-03-25T11:03:05.673Z,26.26
2019-03-25T11:05:34.406Z,27.42
2019-03-25T11:08:04.534Z,28.45
2019-03-25T11:10:33.273Z,29.27
2019-03-25T11:13:01.995Z,30.85
2019-03-25T11:15:30.903Z,30.31
2019-03-25T11:17:59.640Z,28.77
2019-03-25T11:20:28.352Z,28.00
2019-03-25T11:22:57.571Z,29.05
2019-03-25T11:25:26.351Z,27.72
2019-03-25T11:27:55.043Z,30.29
2019-03-25T11:30:29.366Z,28.58
2019-03-25T11:32:58.102Z,29.03
2019-03-25T11:35:26.814Z,29.27
2019-03-25T11:37:55.616Z,28.65
2019-03-25T11:40:24.337Z,30.91
2019-03-25T11:42:53.062Z,28.69
2019-03-25T11:45:21.945Z,28.20
2019-03-25T11:47:50.664Z,30.12
2019-03-25T11:50:19.429Z,28.50
2019-03-25T11:52:48.323Z,30.09
2019-03-25T11:55:17.865Z,31.08
2019-03-25T11:57:46.752Z,29.88
2019-03-25T12:00:15.827Z,28.33
2019-03-25T12:02:44.546Z,28.01
2019-03-25T12:05:13.490Z,28.33
2019-03-25T12:07:42.354Z,28.42
2019-03-25T12:10:11.370Z,28.13
2019-03-25T12:12:40.091Z,29.07
2019-03-25T12:15:09.938Z,28.67
2019-03-25T12:17:38.656Z,29.33
2019-03-25T12:20:08.169Z,27.64
2019-03-25T12:22:38.624Z,28.42
2019-03-25T12:25:08.458Z,27.69
2019-03-25T12:27:37.201Z,27.78
2019-03-25T12:30:08.634Z,27.60
2019-03-25T12:32:37.360Z,27.85
2019-03-25T12:35:09.552Z,28.92
2019-03-25T12:37:38.517Z,27.94
2019-03-25T12:40:07.990Z,28.03
2019-03-25T12:42:37.033Z,27.88
2019-03-25T12:45:09.333Z,28.01
2019-03-25T12:47:38.078Z,27.82
2019-03-25T12:50:08.677Z,28.42
2019-03-25T12:52:37.647Z,29.00
2019-03-25T12:55:06.768Z,28.12
2019-03-25T12:57:35.491Z,31.44
2019-03-25T13:00:09.167Z,28.81
2019-03-25T13:02:37.917Z,29.32
2019-03-25T13:05:07.516Z,27.37
2019-03-25T13:07:36.528Z,28.56
2019-03-25T13:10:07.048Z,27.20
2019-03-25T13:12:35.783Z,27.37
2019-03-25T13:15:06.679Z,28.47
2019-03-25T13:17:35.421Z,31.07
2019-03-25T13:20:06.224Z,28.28
2019-03-25T13:22:35.076Z,29.47
2019-03-25T13:25:03.814Z,27.68
2019-03-25T13:27:32.529Z,27.29
2019-03-25T13:30:01.292Z,28.12
2019-03-25T13:32:30.009Z,27.65
2019-03-25T13:34:58.735Z,26.38
2019-03-25T13:37:27.831Z,28.30
2019-03-25T13:39:56.548Z,27.48
2019-03-25T13:42:25.277Z,29.06
2019-03-25T13:44:57.431Z,27.21
2019-03-25T13:47:24.484Z,26.89
2019-03-25T13:49:53.195Z,26.46
2019-03-25T13:52:21.979Z,26.84
2019-03-25T13:54:50.738Z,27.10
2019-03-25T13:57:19.456Z,26.32
2019-03-25T13:59:48.443Z,26.88
2019-03-25T14:02:17.159Z,26.13
2019-03-25T14:04:45.873Z,27.07
2019-03-25T14:07:15.028Z,27.40
2019-03-25T14:09:43.735Z,24.21
2019-03-25T14:12:12.459Z,26.77
2019-03-25T14:14:41.219Z,25.93
2019-03-25T14:17:09.934Z,27.88
2019-03-25T14:19:38.659Z,28.05
2019-03-25T14:22:07.660Z,26.78
2019-03-25T14:24:36.368Z,26.29
2019-03-25T14:27:05.422Z,26.89
2019-03-25T14:29:34.194Z,26.67
2019-03-25T14:32:02.922Z,26.45
2019-03-25T14:34:31.678Z,26.51
2019-03-25T14:37:00.412Z,27.39
2019-03-25T14:39:29.135Z,26.03
2019-03-25T14:41:57.856Z,27.83
2019-03-25T14:44:26.643Z,25.46
2019-03-25T14:46:55.427Z,26.90
2019-03-25T14:49:24.148Z,25.30
2019-03-25T14:51:52.908Z,27.25
2019-03-25T14:54:21.635Z,26.55
2019-03-25T14:56:50.413Z,25.46
2019-03-25T14:59:19.554Z,26.62
2019-03-25T15:01:48.271Z,26.87
2019-03-25T15:04:16.995Z,27.22
2019-03-25T15:06:45.750Z,26.95
2019-03-25T15:09:14.463Z,27.40
2019-03-25T15:11:43.182Z,25.92
2019-03-25T15:14:11.939Z,27.30
2019-03-25T15:16:40.651Z,27.97
2019-03-25T15:19:09.364Z,28.00
2019-03-25T15:21:38.247Z,26.98
2019-03-25T15:24:06.960Z,26.79
2019-03-25T15:26:35.682Z,25.68
2019-03-25T15:29:04.435Z,26.44
2019-03-25T15:31:33.156Z,26.83
2019-03-25T15:34:01.870Z,26.72
2019-03-25T15:36:31.067Z,27.10
2019-03-25T15:38:59.781Z,26.76
2019-03-25T15:41:28.500Z,26.86
2019-03-25T15:43:57.268Z,27.45
2019-03-25T15:46:25.992Z,28.48
2019-03-25T15:48:54.709Z,28.77
2019-03-25T15:51:23.501Z,28.85
2019-03-25T15:53:52.219Z,29.76
2019-03-25T15:56:20.941Z,29.68
2019-03-25T15:58:49.814Z,29.68
2019-03-25T16:01:18.533Z,30.54
2019-03-25T16:03:47.247Z,30.31
2019-03-25T16:06:16.017Z,31.26
2019-03-25T16:08:44.735Z,31.36
2019-03-25T16:11:13.453Z,31.32
2019-03-25T16:13:42.328Z,31.98
2019-03-25T16:16:11.049Z,31.79
2019-03-25T16:18:40.971Z,31.58
2019-03-25T16:21:10.035Z,31.98
2019-03-25T16:23:38.856Z,32.28
2019-03-25T16:26:07.576Z,32.14
2019-03-25T16:28:36.857Z,32.50
2019-03-25T16:31:05.816Z,33.17
2019-03-25T16:33:34.538Z,34.07
2019-03-25T16:36:04.663Z,35.21
2019-03-25T16:38:33.385Z,36.06
2019-03-25T16:41:02.114Z,36.76
2019-03-25T16:43:31.137Z,35.99
2019-03-25T16:45:59.832Z,36.55
2019-03-25T16:48:28.557Z,36.25
2019-03-25T16:50:57.713Z,36.66
2019-03-25T16:53:26.440Z,37.09
2019-03-25T16:55:55.148Z,36.25
2019-03-25T16:58:24.296Z,36.15
2019-03-25T17:00:53.059Z,36.60
2019-03-25T17:03:21.762Z,36.56
2019-03-25T17:05:50.638Z,37.22
2019-03-25T17:08:19.394Z,37.95
2019-03-25T17:10:48.180Z,38.83
2019-03-25T17:13:17.226Z,39.41
2019-03-25T17:15:45.955Z,38.83
2019-03-25T17:18:14.682Z,39.22
2019-03-25T17:20:43.564Z,39.46
2019-03-25T17:23:12.290Z,39.07
2019-03-25T17:25:41.006Z,38.90
2019-03-25T17:28:09.803Z,38.31
2019-03-25T17:30:38.529Z,38.19
2019-03-25T17:33:07.247Z,37.93
2019-03-25T17:35:36.351Z,38.35
2019-03-25T17:38:05.075Z,38.58
2019-03-25T17:40:33.871Z,38.25
2019-03-25T17:43:03.287Z,39.04
2019-03-25T17:45:32.006Z,39.57
2019-03-25T17:48:00.722Z,40.53
2019-03-25T17:50:29.856Z,40.51
2019-03-25T17:52:58.573Z,40.95
2019-03-25T17:55:27.295Z,41.06
2019-03-25T17:57:56.055Z,41.00
2019-03-25T18:00:50.163Z,41.03
2019-03-25T18:03:19.182Z,41.50
2019-03-25T18:05:47.908Z,41.09
2019-03-25T18:08:16.628Z,41.11
2019-03-25T18:10:45.665Z,41.45
2019-03-25T18:13:22.346Z,41.41
2019-03-25T18:15:44.830Z,41.79
2019-03-25T18:18:14.255Z,41.26
2019-03-25T18:20:42.988Z,42.38
2019-03-25T18:23:19.950Z,41.23
2019-03-25T18:25:48.667Z,41.55
2019-03-25T18:28:17.381Z,42.31
2019-03-25T18:30:46.164Z,42.28
2019-03-25T18:33:14.877Z,42.81
2019-03-25T18:35:43.593Z,43.21
2019-03-25T18:38:21.938Z,43.44
2019-03-25T18:40:50.688Z,43.41
2019-03-25T18:43:19.409Z,43.80
2019-03-25T18:45:49.629Z,44.48
2019-03-25T18:48:18.367Z,44.50
2019-03-25T18:50:47.078Z,44.27
2019-03-25T18:53:16.214Z,44.52
2019-03-25T18:55:44.983Z,44.41
2019-03-25T18:58:13.681Z,44.05
2019-03-25T19:00:42.449Z,44.49
2019-03-25T19:03:11.180Z,44.57
2019-03-25T19:05:39.926Z,44.24
2019-03-25T19:08:09.912Z,44.78
2019-03-25T19:10:38.627Z,44.56
2019-03-25T19:13:07.350Z,44.84
2019-03-25T19:15:36.120Z,45.40
2019-03-25T19:18:04.831Z,44.99
2019-03-25T19:20:33.593Z,45.46
2019-03-25T19:23:02.737Z,46.15
2019-03-25T19:25:31.461Z,46.07
2019-03-25T19:28:00.158Z,46.84
2019-03-25T19:30:28.931Z,47.18
2019-03-25T19:32:57.665Z,47.80
2019-03-25T19:35:26.394Z,48.44
2019-03-25T19:37:55.283Z,47.60
2019-03-25T19:40:24.078Z,47.56
2019-03-25T19:42:52.773Z,47.04
2019-03-25T19:45:21.713Z,47.57
2019-03-25T19:47:50.451Z,47.49
2019-03-25T19:50:19.144Z,46.94
2019-03-25T19:52:48.229Z,46.90
2019-03-25T19:55:16.967Z,47.08
2019-03-25T19:57:45.676Z,47.40
2019-03-25T20:00:14.886Z,47.45
2019-03-25T20:02:43.574Z,48.18
2019-03-25T20:05:12.866Z,48.09
2019-03-25T20:07:42.667Z,48.49
2019-03-25T20:10:29.415Z,48.70
2019-03-25T20:12:59.223Z,49.06
2019-03-25T20:15:28.201Z,49.90
2019-03-25T20:17:58.374Z,50.61
2019-03-25T20:20:27.363Z,50.16
2019-03-25T20:22:56.120Z,49.57
2019-03-25T20:25:24.883Z,50.18
2019-03-25T20:27:53.895Z,50.40
2019-03-25T20:30:25.809Z,51.34
2019-03-25T20:32:54.528Z,51.24
2019-03-25T20:35:23.460Z,51.35
2019-03-25T20:37:52.193Z,51.32
2019-03-25T20:40:20.916Z,51.84
2019-03-25T20:42:50.156Z,51.98
2019-03-25T20:45:18.856Z,51.92
2019-03-25T20:47:47.608Z,51.81
2019-03-25T20:50:16.364Z,51.41
2019-03-25T20:52:45.087Z,51.19
2019-03-25T20:55:13.801Z,51.77
2019-03-25T20:57:42.687Z,52.15
2019-03-25T21:00:12.399Z,52.27
2019-03-25T21:02:45.380Z,51.88
2019-03-25T21:05:11.723Z,52.27
2019-03-25T21:07:40.444Z,52.31
2019-03-25T21:10:09.626Z,52.55
2019-03-25T21:12:39.002Z,53.71
2019-03-25T21:15:09.234Z,54.54
2019-03-25T21:17:37.937Z,53.84
2019-03-25T21:20:08.090Z,53.53
2019-03-25T21:22:36.810Z,54.07
2019-03-25T21:25:07.221Z,53.79
2019-03-25T21:27:36.137Z,53.35
2019-03-25T21:30:07.072Z,53.26
2019-03-25T21:32:35.798Z,53.62
2019-03-25T21:35:06.893Z,53.26
2019-03-25T21:37:35.645Z,53.01
2019-03-25T21:40:07.050Z,52.75
2019-03-25T21:42:36.280Z,53.00
2019-03-25T21:45:07.426Z,54.03
2019-03-25T21:47:36.320Z,54.78
2019-03-25T21:50:06.803Z,55.09
2019-03-25T21:52:35.653Z,55.09
2019-03-25T21:55:05.690Z,55.23
2019-03-25T21:57:34.728Z,55.53
2019-03-25T22:00:04.703Z,56.54
2019-03-25T22:02:33.444Z,56.75
2019-03-25T22:05:02.554Z,57.29
2019-03-25T22:07:31.265Z,57.52
2019-03-25T22:09:59.977Z,57.34
2019-03-25T22:12:28.887Z,56.85
2019-03-25T22:14:57.628Z,57.08
2019-03-25T22:17:26.329Z,57.49
2019-03-25T22:19:55.483Z,57.78
2019-03-25T22:22:24.210Z,57.55
2019-03-25T22:24:52.918Z,57.91
2019-03-25T22:27:21.809Z,57.99
2019-03-25T22:29:50.525Z,58.18
2019-03-25T22:32:19.234Z,58.42
2019-03-25T22:34:48.018Z,58.85
2019-03-25T22:37:16.744Z,59.00
2019-03-25T22:39:45.451Z,59.55
2019-03-25T22:42:14.298Z,59.79
2019-03-25T22:44:43.017Z,60.33
2019-03-25T22:47:11.743Z,60.48
2019-03-25T22:49:40.544Z,60.79
2019-03-25T22:52:09.257Z,59.57
2019-03-25T22:54:37.984Z,59.96
2019-03-25T22:57:06.771Z,61.16
2019-03-25T22:59:35.481Z,61.62
2019-03-25T23:02:04.296Z,62.34
2019-03-25T23:04:33.189Z,62.47
2019-03-25T23:07:01.909Z,62.29
2019-03-25T23:09:30.630Z,62.50
2019-03-25T23:11:59.426Z,62.56
2019-03-25T23:14:30.594Z,62.80
2019-03-25T23:16:59.404Z,62.74
2019-03-25T23:19:28.299Z,63.40
2019-03-25T23:21:57.118Z,63.35
2019-03-25T23:24:25.913Z,62.08
2019-03-25T23:26:54.932Z,61.68
2019-03-25T23:29:23.757Z,61.98
2019-03-25T23:31:52.558Z,62.23
2019-03-25T23:34:21.473Z,62.41
2019-03-25T23:36:50.322Z,62.52
2019-03-25T23:39:19.132Z,62.89
2019-03-25T23:41:48.113Z,63.40
2019-03-25T23:44:16.926Z,63.31
2019-03-25T23:46:45.743Z,63.74
2019-03-25T23:49:14.758Z,63.77
2019-03-25T23:51:43.578Z,63.76
2019-03-25T23:54:12.788Z,64.23
2019-03-25T23:56:42.638Z,65.17
2019-03-25T23:59:11.459Z,65.06
